createdAt,value
2022-08-22T00:01:47.476Z,14.61
2022-08-22T00:03:10.196Z,15.70
2022-08-22T00:04:23.720Z,14.40
2022-08-22T00:06:58.309Z,14.31
2022-08-22T00:09:37.076Z,14.40
2022-08-22T00:12:18.837Z,14.54
2022-08-22T00:14:52.625Z,14.52
2022-08-22T00:17:41.325Z,14.50
2022-08-22T00:20:15.013Z,14.34
2022-08-22T00:22:49.089Z,14.36
2022-08-22T00:25:43.621Z,14.39
2022-08-22T00:28:15.741Z,14.35
2022-08-22T00:30:54.414Z,14.35
2022-08-22T00:33:32.719Z,14.33
2022-08-22T00:36:18.017Z,14.23
2022-08-22T00:38:54.358Z,13.95
2022-08-22T00:41:56.509Z,14.28
2022-08-22T00:44:58.528Z,14.25
2022-08-22T00:47:54.030Z,14.24
2022-08-22T00:50:59.865Z,14.24
2022-08-22T00:53:44.346Z,14.21
2022-08-22T00:56:40.710Z,14.12
2022-08-22T00:59:28.581Z,13.40
2022-08-22T01:02:05.605Z,14.04
2022-08-22T01:04:51.650Z,14.10
2022-08-22T01:07:38.158Z,14.06
2022-08-22T01:10:24.430Z,14.05
2022-08-22T01:13:16.460Z,13.72
2022-08-22T01:15:47.957Z,14.01
2022-08-22T01:18:44.229Z,13.70
2022-08-22T01:21:44.208Z,13.99
2022-08-22T01:25:12.517Z,13.99
2022-08-22T01:28:10.396Z,13.89
2022-08-22T01:31:00.549Z,13.51
2022-08-22T01:34:19.145Z,13.80
2022-08-22T01:37:10.269Z,13.72
2022-08-22T01:40:19.619Z,13.77
2022-08-22T01:43:06.341Z,13.70
2022-08-22T01:46:06.839Z,13.79
2022-08-22T01:48:42.968Z,13.45
2022-08-22T01:51:23.259Z,13.81
2022-08-22T01:54:02.092Z,13.67
2022-08-22T01:56:36.613Z,13.55
2022-08-22T01:59:10.981Z,13.79
2022-08-22T02:02:00.176Z,13.65
2022-08-22T02:04:38.967Z,13.46
2022-08-22T02:07:16.258Z,13.67
2022-08-22T02:09:54.473Z,13.46
2022-08-22T02:12:31.416Z,13.17
2022-08-22T02:15:14.452Z,13.55
2022-08-22T02:17:57.199Z,13.55
2022-08-22T02:20:35.400Z,13.52
2022-08-22T02:23:17.395Z,13.02
2022-08-22T02:25:53.863Z,13.46
2022-08-22T02:28:57.068Z,13.44
2022-08-22T02:31:39.518Z,13.36
2022-08-22T02:34:26.356Z,13.31
2022-08-22T02:37:04.078Z,13.12
2022-08-22T02:39:43.556Z,13.35
2022-08-22T02:42:22.891Z,13.34
2022-08-22T02:45:00.117Z,13.34
2022-08-22T02:47:38.123Z,13.13
2022-08-22T02:50:17.526Z,13.03
2022-08-22T02:52:57.671Z,12.80
2022-08-22T02:55:40.837Z,13.38
2022-08-22T02:58:17.541Z,13.19
2022-08-22T03:00:51.269Z,13.34
2022-08-22T03:03:25.292Z,13.32
2022-08-22T03:06:01.836Z,13.31
2022-08-22T03:08:34.202Z,13.28
2022-08-22T03:11:17.293Z,13.20
2022-08-22T03:13:56.164Z,13.25
2022-08-22T03:16:31.749Z,13.24
2022-08-22T03:19:13.099Z,13.25
2022-08-22T03:21:55.261Z,13.23
2022-08-22T03:24:31.797Z,13.22
2022-08-22T03:27:07.806Z,13.22
2022-08-22T03:29:41.093Z,13.19
2022-08-22T03:32:15.445Z,13.18
2022-08-22T03:34:59.750Z,13.19
2022-08-22T03:37:39.646Z,13.17
2022-08-22T03:40:22.751Z,13.09
2022-08-22T03:43:25.098Z,13.12
2022-08-22T03:46:35.872Z,13.09
2022-08-22T03:49:46.004Z,13.03
2022-08-22T03:52:59.251Z,13.01
2022-08-22T03:55:36.154Z,13.00
2022-08-22T03:58:32.583Z,12.76
2022-08-22T04:01:46.545Z,12.88
2022-08-22T04:04:52.493Z,12.94
2022-08-22T04:07:46.910Z,12.97
2022-08-22T04:10:34.080Z,12.95
2022-08-22T04:13:36.297Z,12.92
2022-08-22T04:16:41.577Z,12.89
2022-08-22T04:19:38.936Z,12.66
2022-08-22T04:22:22.100Z,12.90
2022-08-22T04:24:55.713Z,12.90
2022-08-22T04:27:29.248Z,11.38
2022-08-22T04:30:03.611Z,12.60
2022-08-22T04:32:38.697Z,12.70
2022-08-22T04:35:12.669Z,12.61
2022-08-22T04:37:48.364Z,12.84
2022-08-22T04:40:23.517Z,12.75
2022-08-22T04:42:58.630Z,12.87
2022-08-22T04:45:34.996Z,12.87
2022-08-22T04:48:11.085Z,12.71
2022-08-22T04:50:47.180Z,12.87
2022-08-22T04:53:28.932Z,12.87
2022-08-22T04:56:08.013Z,12.88
2022-08-22T04:58:47.125Z,12.77
2022-08-22T05:01:20.792Z,12.92
2022-08-22T05:03:53.403Z,12.83
2022-08-22T05:06:27.019Z,12.90
2022-08-22T05:08:58.453Z,12.92
2022-08-22T05:11:28.162Z,12.94
2022-08-22T05:14:00.489Z,12.99
2022-08-22T05:16:33.604Z,13.02
2022-08-22T05:19:06.235Z,13.03
2022-08-22T05:21:38.931Z,13.04
2022-08-22T05:24:11.873Z,13.01
2022-08-22T05:26:44.851Z,13.07
2022-08-22T05:29:18.688Z,13.10
2022-08-22T05:31:53.422Z,13.14
2022-08-22T05:34:26.146Z,13.17
2022-08-22T05:36:58.502Z,13.19
2022-08-22T05:39:30.470Z,13.24
2022-08-22T05:42:01.988Z,13.31
2022-08-22T05:44:34.868Z,13.35
2022-08-22T05:47:13.789Z,13.41
2022-08-22T05:49:50.774Z,13.25
2022-08-22T05:52:29.848Z,13.53
2022-08-22T05:55:06.716Z,13.52
2022-08-22T05:57:40.284Z,13.61
2022-08-22T06:00:13.059Z,13.65
2022-08-22T06:02:55.547Z,13.49
2022-08-22T06:05:28.162Z,13.67
2022-08-22T06:08:02.842Z,13.62
2022-08-22T06:10:41.234Z,13.84
2022-08-22T06:13:16.592Z,13.89
2022-08-22T06:16:02.233Z,13.96
2022-08-22T06:18:34.858Z,14.04
2022-08-22T06:21:06.053Z,14.10
2022-08-22T06:23:38.798Z,14.16
2022-08-22T06:26:20.668Z,14.21
2022-08-22T06:28:55.452Z,14.25
2022-08-22T06:31:29.647Z,14.32
2022-08-22T06:34:06.252Z,14.40
2022-08-22T06:36:39.337Z,14.46
2022-08-22T06:39:19.985Z,14.52
2022-08-22T06:41:54.270Z,14.57
2022-08-22T06:44:25.590Z,14.63
2022-08-22T06:46:58.562Z,14.68
2022-08-22T06:49:31.265Z,14.72
2022-08-22T06:52:03.678Z,14.76
2022-08-22T06:54:36.697Z,14.83
2022-08-22T06:57:07.693Z,14.60
2022-08-22T06:59:40.388Z,14.97
2022-08-22T07:02:23.319Z,15.06
2022-08-22T07:04:53.976Z,15.11
2022-08-22T07:07:27.489Z,15.17
2022-08-22T07:09:57.826Z,15.15
2022-08-22T07:12:30.871Z,15.28
2022-08-22T07:15:13.126Z,15.35
2022-08-22T07:17:51.528Z,15.41
2022-08-22T07:20:29.768Z,15.48
2022-08-22T07:23:01.843Z,15.55
2022-08-22T07:25:31.932Z,15.38
2022-08-22T07:28:14.523Z,15.61
2022-08-22T07:30:56.003Z,15.82
2022-08-22T07:33:44.286Z,15.84
2022-08-22T07:36:32.019Z,15.98
2022-08-22T07:39:20.569Z,16.04
2022-08-22T07:42:02.181Z,16.13
2022-08-22T07:44:36.174Z,16.21
2022-08-22T07:47:09.859Z,16.35
2022-08-22T07:49:40.075Z,16.32
2022-08-22T07:52:21.170Z,16.46
2022-08-22T07:54:56.413Z,16.59
2022-08-22T07:57:30.083Z,16.08
2022-08-22T07:59:59.719Z,16.63
2022-08-22T08:02:28.721Z,16.74
2022-08-22T08:05:01.768Z,16.84
2022-08-22T08:07:32.438Z,16.79
2022-08-22T08:10:04.873Z,17.00
2022-08-22T08:12:37.042Z,16.95
2022-08-22T08:15:09.720Z,17.15
2022-08-22T08:17:41.366Z,17.19
2022-08-22T08:20:13.541Z,17.26
2022-08-22T08:22:48.177Z,17.15
2022-08-22T08:25:21.128Z,17.47
2022-08-22T08:28:09.898Z,17.36
2022-08-22T08:30:43.506Z,17.43
2022-08-22T08:33:26.321Z,17.61
2022-08-22T08:36:02.390Z,17.67
2022-08-22T08:38:37.663Z,17.74
2022-08-22T08:41:46.417Z,17.81
2022-08-22T08:44:36.011Z,17.87
2022-08-22T08:47:23.046Z,17.95
2022-08-22T08:50:19.784Z,17.95
2022-08-22T08:53:04.534Z,18.05
2022-08-22T08:55:55.800Z,18.12
2022-08-22T08:58:38.097Z,18.17
2022-08-22T09:01:31.289Z,18.27
2022-08-22T09:04:35.528Z,18.35
2022-08-22T09:07:31.341Z,18.18
2022-08-22T09:10:19.618Z,18.56
2022-08-22T09:13:12.972Z,18.60
2022-08-22T09:16:10.095Z,18.65
2022-08-22T09:19:07.045Z,18.77
2022-08-22T09:22:05.656Z,18.80
2022-08-22T09:25:23.915Z,18.87
2022-08-22T09:31:57.075Z,19.05
2022-08-22T09:34:36.105Z,19.16
2022-08-22T09:37:17.996Z,19.22
2022-08-22T09:39:57.370Z,19.35
2022-08-22T09:42:37.205Z,19.39
2022-08-22T09:45:34.735Z,19.50
2022-08-22T09:48:13.187Z,19.58
2022-08-22T09:50:54.565Z,19.53
2022-08-22T09:53:45.905Z,19.54
2022-08-22T09:56:26.064Z,19.51
2022-08-22T09:59:02.359Z,19.46
2022-08-22T10:01:34.857Z,19.53
2022-08-22T10:04:44.885Z,19.52
2022-08-22T10:07:34.118Z,19.61
2022-08-22T10:10:14.784Z,19.77
2022-08-22T10:12:53.323Z,19.66
2022-08-22T10:15:31.171Z,19.99
2022-08-22T10:18:13.126Z,19.83
2022-08-22T10:21:05.343Z,20.00
2022-08-22T10:23:40.972Z,19.94
2022-08-22T10:26:25.624Z,19.99
2022-08-22T10:29:00.459Z,19.97
2022-08-22T10:31:55.548Z,20.24
2022-08-22T10:34:36.990Z,20.37
2022-08-22T10:37:23.916Z,20.45
2022-08-22T10:40:03.272Z,20.58
2022-08-22T10:42:36.553Z,20.68
2022-08-22T10:45:32.107Z,20.77
2022-08-22T10:48:36.974Z,20.84
2022-08-22T10:51:35.376Z,20.91
2022-08-22T10:54:37.084Z,20.98
2022-08-22T10:57:26.738Z,21.08
2022-08-22T11:00:04.303Z,21.14
2022-08-22T11:02:42.233Z,20.87
2022-08-22T11:05:28.917Z,21.34
2022-08-22T11:08:08.272Z,21.44
2022-08-22T11:10:56.044Z,21.31
2022-08-22T11:13:31.955Z,21.51
2022-08-22T11:16:06.509Z,21.19
2022-08-22T11:19:15.564Z,21.60
2022-08-22T11:22:01.824Z,21.63
2022-08-22T11:25:14.169Z,21.65
2022-08-22T11:28:00.464Z,21.46
2022-08-22T11:30:36.480Z,21.59
2022-08-22T11:33:46.139Z,21.65
2022-08-22T11:36:31.153Z,21.55
2022-08-22T11:39:18.015Z,21.42
2022-08-22T11:41:56.837Z,21.69
2022-08-22T11:44:50.532Z,21.80
2022-08-22T11:47:27.100Z,21.92
2022-08-22T11:50:01.769Z,22.06
2022-08-22T11:52:59.253Z,22.17
2022-08-22T11:55:35.300Z,22.09
2022-08-22T11:58:28.971Z,22.21
2022-08-22T12:01:05.083Z,22.28
2022-08-22T12:03:59.830Z,22.52
2022-08-22T12:06:56.465Z,22.32
2022-08-22T12:09:40.053Z,22.45
2022-08-22T12:12:33.250Z,22.46
2022-08-22T12:15:14.119Z,22.28
2022-08-22T12:18:19.930Z,22.80
2022-08-22T12:21:17.244Z,22.93
2022-08-22T12:24:11.291Z,23.12
2022-08-22T12:27:06.531Z,23.19
2022-08-22T12:29:45.286Z,23.12
2022-08-22T12:32:45.739Z,23.00
2022-08-22T12:35:30.605Z,22.86
2022-08-22T12:38:29.142Z,22.79
2022-08-22T12:41:35.051Z,22.83
2022-08-22T12:44:20.350Z,22.85
2022-08-22T12:47:07.457Z,23.01
2022-08-22T12:49:52.535Z,23.12
2022-08-22T12:52:38.555Z,23.10
2022-08-22T12:55:39.860Z,23.00
2022-08-22T12:58:23.310Z,22.91
2022-08-22T13:00:52.910Z,22.83
2022-08-22T13:03:26.430Z,22.52
2022-08-22T13:06:00.498Z,22.51
2022-08-22T13:08:34.541Z,22.52
2022-08-22T13:11:09.986Z,22.49
2022-08-22T13:13:56.176Z,22.46
2022-08-22T13:16:36.604Z,22.51
2022-08-22T13:19:13.574Z,22.58
2022-08-22T13:21:49.106Z,22.66
2022-08-22T13:24:38.737Z,22.74
2022-08-22T13:27:12.860Z,22.96
2022-08-22T13:29:50.306Z,22.91
2022-08-22T13:32:27.745Z,23.19
2022-08-22T13:34:58.682Z,23.19
2022-08-22T13:37:37.486Z,23.37
2022-08-22T13:40:33.770Z,23.46
2022-08-22T13:43:09.230Z,23.52
2022-08-22T13:45:39.741Z,23.46
2022-08-22T13:48:12.769Z,23.65
2022-08-22T13:51:02.178Z,23.59
2022-08-22T13:53:41.583Z,23.71
2022-08-22T13:56:20.963Z,23.70
2022-08-22T13:58:52.764Z,23.74
2022-08-22T14:01:37.970Z,23.97
2022-08-22T14:04:28.617Z,23.75
2022-08-22T14:07:25.509Z,24.28
2022-08-22T14:09:58.023Z,24.27
2022-08-22T14:12:33.395Z,24.30
2022-08-22T14:15:23.570Z,24.19
2022-08-22T14:17:53.764Z,24.02
2022-08-22T14:20:32.104Z,23.85
2022-08-22T14:23:04.838Z,23.68
2022-08-22T14:25:39.074Z,23.60
2022-08-22T14:28:22.338Z,23.60
2022-08-22T14:31:03.925Z,23.67
2022-08-22T14:33:40.901Z,23.84
2022-08-22T14:36:17.746Z,23.86
2022-08-22T14:38:51.841Z,23.81
2022-08-22T14:41:56.256Z,23.80
2022-08-22T14:44:26.801Z,23.76
2022-08-22T14:46:59.266Z,23.77
2022-08-22T14:49:38.266Z,23.68
2022-08-22T14:52:19.521Z,23.69
2022-08-22T14:54:50.938Z,23.40
2022-08-22T14:57:21.254Z,23.59
2022-08-22T14:59:54.081Z,23.44
2022-08-22T15:02:29.497Z,23.40
2022-08-22T15:05:02.389Z,23.19
2022-08-22T15:07:37.454Z,23.16
2022-08-22T15:10:11.970Z,23.22
2022-08-22T15:12:46.744Z,23.27
2022-08-22T15:15:29.634Z,23.13
2022-08-22T15:17:58.792Z,23.37
2022-08-22T15:20:36.193Z,23.40
2022-08-22T15:23:10.147Z,23.39
2022-08-22T15:25:41.880Z,23.33
2022-08-22T15:28:20.806Z,23.25
2022-08-22T15:31:03.586Z,23.23
2022-08-22T15:33:35.718Z,23.21
2022-08-22T15:36:15.887Z,23.06
2022-08-22T15:38:48.196Z,22.97
2022-08-22T15:41:40.349Z,22.96
2022-08-22T15:44:33.130Z,22.89
2022-08-22T15:47:11.949Z,22.68
2022-08-22T15:49:56.333Z,22.67
2022-08-22T15:52:28.893Z,22.44
2022-08-22T15:55:23.867Z,22.64
2022-08-22T15:58:02.552Z,22.59
2022-08-22T16:00:36.068Z,22.43
2022-08-22T16:03:25.217Z,22.33
2022-08-22T16:05:57.246Z,22.25
2022-08-22T16:08:33.315Z,22.25
2022-08-22T16:11:29.568Z,22.25
2022-08-22T16:14:23.676Z,22.16
2022-08-22T16:17:00.992Z,22.12
2022-08-22T16:19:32.457Z,22.11
2022-08-22T16:22:15.431Z,22.02
2022-08-22T16:25:10.141Z,21.80
2022-08-22T16:27:54.601Z,21.84
2022-08-22T16:30:35.149Z,21.80
2022-08-22T16:33:04.707Z,21.74
2022-08-22T16:36:26.376Z,21.74
2022-08-22T16:38:58.957Z,21.64
2022-08-22T16:41:34.064Z,21.57
2022-08-22T16:44:39.331Z,21.52
2022-08-22T16:47:17.323Z,21.20
2022-08-22T16:50:01.127Z,21.30
2022-08-22T16:52:52.139Z,21.21
2022-08-22T16:55:47.183Z,21.21
2022-08-22T16:58:44.996Z,21.15
2022-08-22T17:01:32.643Z,21.11
2022-08-22T17:04:10.529Z,20.80
2022-08-22T17:06:57.537Z,21.01
2022-08-22T17:09:46.922Z,20.99
2022-08-22T17:12:32.848Z,20.82
2022-08-22T17:15:18.644Z,20.89
2022-08-22T17:17:59.582Z,20.94
2022-08-22T17:20:47.536Z,20.91
2022-08-22T17:23:26.516Z,20.88
2022-08-22T17:26:03.181Z,20.86
2022-08-22T17:28:42.485Z,20.85
2022-08-22T17:31:18.795Z,20.83
2022-08-22T17:34:05.684Z,20.78
2022-08-22T17:37:03.049Z,20.72
2022-08-22T17:47:51.201Z,20.43
2022-08-22T17:50:24.275Z,20.15
2022-08-22T17:52:58.838Z,20.45
2022-08-22T17:55:31.684Z,20.41
2022-08-22T17:58:07.926Z,20.38
2022-08-22T18:00:40.618Z,20.35
2022-08-22T18:03:16.982Z,20.29
2022-08-22T18:05:52.857Z,20.09
2022-08-22T18:09:33.390Z,20.18
2022-08-22T18:11:30.240Z,20.13
2022-08-22T18:14:11.492Z,20.09
2022-08-22T18:16:52.301Z,20.04
2022-08-22T18:19:37.892Z,19.99
2022-08-22T18:22:11.885Z,19.96
2022-08-22T18:24:47.657Z,19.92
2022-08-22T18:27:34.403Z,19.67
2022-08-22T18:30:15.927Z,19.83
2022-08-22T18:32:54.761Z,19.79
2022-08-22T18:35:30.257Z,19.45
2022-08-22T18:38:19.682Z,19.70
2022-08-22T18:40:55.725Z,19.63
2022-08-22T18:43:36.897Z,19.59
2022-08-22T18:46:42.814Z,19.52
2022-08-22T18:49:28.555Z,19.17
2022-08-22T18:52:14.842Z,19.41
2022-08-22T18:55:04.419Z,19.40
2022-08-22T18:57:51.030Z,19.37
2022-08-22T19:00:22.194Z,19.31
2022-08-22T19:03:24.175Z,19.30
2022-08-22T19:09:58.648Z,19.11
2022-08-22T19:12:46.404Z,18.96
2022-08-22T19:15:28.945Z,19.05
2022-08-22T19:18:15.806Z,19.02
2022-08-22T19:21:02.051Z,18.52
2022-08-22T19:23:49.386Z,18.91
2022-08-22T19:26:38.431Z,18.94
2022-08-22T19:29:29.885Z,18.77
2022-08-22T19:32:00.886Z,18.79
2022-08-22T19:34:39.438Z,18.82
2022-08-22T19:37:33.106Z,18.75
2022-08-22T19:40:05.613Z,18.64
2022-08-22T19:42:40.621Z,17.93
2022-08-22T19:45:26.046Z,18.66
2022-08-22T19:47:59.648Z,18.64
2022-08-22T19:50:31.605Z,18.48
2022-08-22T19:53:24.553Z,18.53
2022-08-22T19:56:08.625Z,18.40
2022-08-22T19:58:55.761Z,18.51
2022-08-22T20:01:44.536Z,18.46
2022-08-22T20:04:36.995Z,18.42
2022-08-22T20:07:15.401Z,18.37
2022-08-22T20:09:54.553Z,18.31
2022-08-22T20:12:32.301Z,18.17
2022-08-22T20:15:18.476Z,18.21
2022-08-22T20:18:11.642Z,18.13
2022-08-22T20:20:54.190Z,18.06
2022-08-22T20:23:29.528Z,17.89
2022-08-22T20:25:59.356Z,17.99
2022-08-22T20:28:40.775Z,17.81
2022-08-22T20:31:22.496Z,17.34
2022-08-22T20:33:57.047Z,17.84
2022-08-22T20:36:28.692Z,17.76
2022-08-22T20:39:03.451Z,17.69
2022-08-22T20:41:37.232Z,17.12
2022-08-22T20:44:16.083Z,17.56
2022-08-22T20:46:55.684Z,17.51
2022-08-22T20:49:29.750Z,17.48
2022-08-22T20:52:01.005Z,17.44
2022-08-22T20:54:31.197Z,17.41
2022-08-22T20:57:02.661Z,17.40
2022-08-22T20:59:37.301Z,17.38
2022-08-22T21:02:15.175Z,17.36
2022-08-22T21:04:53.129Z,17.31
2022-08-22T21:07:27.900Z,17.25
2022-08-22T21:10:22.537Z,17.18
2022-08-22T21:13:10.853Z,17.14
2022-08-22T21:15:42.427Z,17.08
2022-08-22T21:18:13.869Z,16.69
2022-08-22T21:20:42.889Z,17.04
2022-08-22T21:23:21.469Z,16.98
2022-08-22T21:25:57.180Z,16.93
2022-08-22T21:28:35.733Z,16.90
2022-08-22T21:31:12.957Z,16.85
2022-08-22T21:33:48.827Z,16.82
2022-08-22T21:36:19.398Z,16.79
2022-08-22T21:38:51.517Z,16.26
2022-08-22T21:41:31.984Z,16.73
2022-08-22T21:44:26.617Z,16.71
2022-08-22T21:46:55.557Z,16.70
2022-08-22T21:49:27.830Z,16.64
2022-08-22T21:51:56.544Z,16.62
2022-08-22T21:54:43.660Z,16.60
2022-08-22T21:57:35.252Z,16.55
2022-08-22T22:00:11.428Z,16.48
2022-08-22T22:02:42.253Z,16.46
2022-08-22T22:05:17.827Z,16.44
2022-08-22T22:07:48.034Z,16.18
2022-08-22T22:10:19.118Z,16.20
2022-08-22T22:12:49.013Z,16.34
2022-08-22T22:15:21.973Z,16.32
2022-08-22T22:17:50.944Z,16.27
2022-08-22T22:20:23.463Z,16.24
2022-08-22T22:22:52.352Z,16.22
2022-08-22T22:25:39.541Z,16.16
2022-08-22T22:28:16.780Z,16.11
2022-08-22T22:30:50.604Z,16.06
2022-08-22T22:33:20.021Z,15.99
2022-08-22T22:35:52.083Z,15.95
2022-08-22T22:38:24.090Z,15.92
2022-08-22T22:40:53.400Z,15.89
2022-08-22T22:43:21.946Z,15.87
2022-08-22T22:45:50.649Z,15.85
2022-08-22T22:48:24.343Z,15.50
2022-08-22T22:50:55.800Z,15.77
2022-08-22T22:53:33.736Z,15.74
2022-08-22T22:56:09.640Z,15.72
2022-08-22T22:58:38.537Z,15.33
2022-08-22T23:01:11.033Z,15.66
2022-08-22T23:03:39.639Z,15.62
2022-08-22T23:06:14.602Z,15.60
2022-08-22T23:08:43.477Z,15.56
2022-08-22T23:11:13.927Z,15.55
2022-08-22T23:13:43.267Z,15.51
2022-08-22T23:16:14.976Z,15.48
2022-08-22T23:18:46.061Z,15.46
2022-08-22T23:21:20.904Z,15.43
2022-08-22T23:23:50.385Z,15.41
2022-08-22T23:26:19.421Z,15.39
2022-08-22T23:28:47.985Z,15.35
2022-08-22T23:31:18.594Z,15.34
2022-08-22T23:33:47.635Z,15.31
2022-08-22T23:36:20.578Z,15.29
2022-08-22T23:38:51.754Z,15.23
2022-08-22T23:41:22.524Z,15.08
2022-08-22T23:43:55.709Z,15.17
2022-08-22T23:46:26.981Z,15.13
2022-08-22T23:48:55.789Z,15.10
2022-08-22T23:51:27.552Z,15.10
2022-08-22T23:53:59.040Z,15.07
2022-08-22T23:56:30.612Z,14.50
2022-08-22T23:59:00.703Z,14.98
